createdAt,value
2018-12-04T00:00:38.650Z,95207.14
2018-12-04T00:03:08.801Z,95205.34
2018-12-04T00:05:38.241Z,95208.73
2018-12-04T00:08:07.581Z,95213.94
2018-12-04T00:10:37.403Z,95222.87
2018-12-04T00:13:06.717Z,95214.74
2018-12-04T00:15:36.077Z,95225.64
2018-12-04T00:18:05.407Z,95223.38
2018-12-04T00:20:34.750Z,95229.70
2018-12-04T00:23:04.208Z,95232.30
2018-12-04T00:25:33.679Z,95235.72
2018-12-04T00:28:03.041Z,95234.24
2018-12-04T00:30:32.779Z,95249.70
2018-12-04T00:33:02.076Z,95246.78
2018-12-04T00:35:31.396Z,95238.13
2018-12-04T00:38:00.738Z,95259.14
2018-12-04T00:40:30.150Z,95245.95
2018-12-04T00:42:59.542Z,95260.09
2018-12-04T00:45:28.940Z,95256.84
2018-12-04T00:47:58.318Z,95245.95
2018-12-04T00:50:27.647Z,95255.55
2018-12-04T00:52:56.980Z,95268.23
2018-12-04T00:55:26.458Z,95256.84
2018-12-04T00:57:56.074Z,95264.98
2018-12-04T01:00:25.524Z,95269.83
2018-12-04T01:02:54.846Z,95261.39
2018-12-04T01:05:24.312Z,95286.89
2018-12-04T01:07:53.686Z,95263.05
2018-12-04T01:10:23.094Z,95269.53
2018-12-04T01:12:52.398Z,95272.59
2018-12-04T01:15:21.761Z,95274.87
2018-12-04T01:17:51.066Z,95293.23
2018-12-04T01:20:20.406Z,95288.38
2018-12-04T01:22:49.788Z,95282.31
2018-12-04T01:25:19.106Z,95292.27
2018-12-04T01:27:48.421Z,95283.47
2018-12-04T01:30:17.970Z,95288.67
2018-12-04T01:32:47.516Z,95291.62
2018-12-04T01:35:16.802Z,95282.82
2018-12-04T01:37:46.204Z,95288.19
2018-12-04T01:40:15.764Z,95293.56
2018-12-04T01:42:45.286Z,95285.42
2018-12-04T01:45:14.839Z,95300.70
2018-12-04T01:47:44.228Z,95300.53
2018-12-04T01:50:13.814Z,95306.57
2018-12-04T01:52:43.404Z,95291.45
2018-12-04T01:55:12.808Z,95323.64
2018-12-04T01:57:42.409Z,95307.39
2018-12-04T02:00:11.748Z,95326.25
2018-12-04T02:02:41.364Z,95320.05
2018-12-04T02:05:11.195Z,95309.98
2018-12-04T02:07:40.724Z,95328.48
2018-12-04T02:10:10.276Z,95318.57
2018-12-04T02:12:39.630Z,95315.48
2018-12-04T02:15:09.139Z,95315.03
2018-12-04T02:17:38.743Z,95315.97
2018-12-04T02:20:08.337Z,95317.27
2018-12-04T02:22:37.703Z,95319.25
2018-12-04T02:25:07.711Z,95311.13
2018-12-04T02:27:37.144Z,95320.06
2018-12-04T02:30:08.904Z,95311.43
2018-12-04T02:32:38.418Z,95312.22
2018-12-04T02:35:07.974Z,95311.10
2018-12-04T02:37:37.403Z,95322.81
2018-12-04T02:40:06.963Z,95323.29
2018-12-04T02:42:36.382Z,95326.38
2018-12-04T02:45:06.394Z,95326.07
2018-12-04T02:47:35.729Z,95328.16
2018-12-04T02:50:05.926Z,95333.86
2018-12-04T02:52:35.379Z,95334.52
2018-12-04T02:55:04.794Z,95327.82
2018-12-04T02:57:34.121Z,95331.91
2018-12-04T03:00:04.154Z,95323.59
2018-12-04T03:02:33.566Z,95336.77
2018-12-04T03:05:03.579Z,95343.75
2018-12-04T03:07:33.022Z,95342.59
2018-12-04T03:10:02.358Z,95342.78
2018-12-04T03:12:32.102Z,95345.64
2018-12-04T03:15:01.494Z,95349.05
2018-12-04T03:17:30.919Z,95350.33
2018-12-04T03:20:00.326Z,95351.61
2018-12-04T03:22:29.789Z,95359.60
2018-12-04T03:24:59.134Z,95379.07
2018-12-04T03:27:28.885Z,95359.22
2018-12-04T03:29:58.433Z,95379.44
2018-12-04T03:32:28.173Z,95382.03
2018-12-04T03:34:57.779Z,95379.24
2018-12-04T03:37:27.319Z,95387.16
2018-12-04T03:39:57.033Z,95377.70
2018-12-04T03:42:26.525Z,95379.40
2018-12-04T03:44:55.859Z,95395.47
2018-12-04T03:47:25.232Z,95382.43
2018-12-04T03:49:54.636Z,95377.30
2018-12-04T03:52:24.158Z,95381.80
2018-12-04T03:54:53.499Z,95390.48
2018-12-04T03:57:22.799Z,95389.78
2018-12-04T03:59:52.335Z,95402.88
2018-12-04T04:02:21.708Z,95400.11
2018-12-04T04:04:51.271Z,95389.77
2018-12-04T04:07:20.613Z,95390.61
2018-12-04T04:09:50.144Z,95404.84
2018-12-04T04:12:19.497Z,95405.83
2018-12-04T04:14:48.809Z,95405.09
2018-12-04T04:17:18.143Z,95410.95
2018-12-04T04:19:47.527Z,95401.23
2018-12-04T04:22:16.895Z,95401.38
2018-12-04T04:24:46.261Z,95421.33
2018-12-04T04:27:15.620Z,95402.19
2018-12-04T04:29:45.131Z,95413.59
2018-12-04T04:32:14.471Z,95409.55
2018-12-04T04:34:43.819Z,95400.64
2018-12-04T04:37:13.214Z,95419.68
2018-12-04T04:39:42.544Z,95408.25
2018-12-04T04:42:11.940Z,95405.44
2018-12-04T04:44:41.368Z,95412.87
2018-12-04T04:47:10.756Z,95427.48
2018-12-04T04:49:40.207Z,95426.41
2018-12-04T04:52:09.633Z,95429.10
2018-12-04T04:54:38.962Z,95435.19
2018-12-04T04:57:08.417Z,95437.73
2018-12-04T04:59:37.761Z,95448.25
2018-12-04T05:02:07.201Z,95444.00
2018-12-04T05:04:36.497Z,95453.03
2018-12-04T05:07:05.915Z,95457.55
2018-12-04T05:09:35.271Z,95462.52
2018-12-04T05:12:04.604Z,95469.53
2018-12-04T05:14:34.086Z,95466.94
2018-12-04T05:17:03.529Z,95476.95
2018-12-04T05:19:33.015Z,95471.19
2018-12-04T05:22:02.659Z,95477.53
2018-12-04T05:24:32.063Z,95473.78
2018-12-04T05:27:01.461Z,95491.35
2018-12-04T05:29:30.991Z,95491.63
2018-12-04T05:32:00.424Z,95487.83
2018-12-04T05:34:29.803Z,95499.55
2018-12-04T05:36:59.145Z,95496.68
2018-12-04T05:39:28.537Z,95509.92
2018-12-04T05:41:57.878Z,95508.97
2018-12-04T05:44:27.321Z,95507.81
2018-12-04T05:46:56.785Z,95504.72
2018-12-04T05:49:26.116Z,95517.34
2018-12-04T05:51:55.520Z,95520.11
2018-12-04T05:54:24.919Z,95531.94
2018-12-04T05:56:54.221Z,95528.70
2018-12-04T05:59:23.691Z,95521.77
2018-12-04T06:01:53.249Z,95522.62
2018-12-04T06:04:22.807Z,95537.13
2018-12-04T06:06:52.254Z,95537.75
2018-12-04T06:09:21.617Z,95547.88
2018-12-04T06:11:50.912Z,95548.55
2018-12-04T06:14:20.428Z,95545.36
2018-12-04T06:16:49.924Z,95556.61
2018-12-04T06:19:19.420Z,95558.58
2018-12-04T06:21:48.781Z,95561.41
2018-12-04T06:24:18.100Z,95558.63
2018-12-04T06:26:47.519Z,95559.06
2018-12-04T06:29:17.083Z,95562.52
2018-12-04T06:31:46.515Z,95562.79
2018-12-04T06:34:15.881Z,95560.69
2018-12-04T06:36:45.264Z,95556.12
2018-12-04T06:39:14.740Z,95561.59
2018-12-04T06:41:44.077Z,95563.84
2018-12-04T06:44:13.571Z,95561.86
2018-12-04T06:46:42.879Z,95569.74
2018-12-04T06:49:12.356Z,95567.77
2018-12-04T06:51:41.844Z,95570.55
2018-12-04T06:54:11.331Z,95577.34
2018-12-04T06:56:40.676Z,95577.47
2018-12-04T06:59:10.160Z,95560.38
2018-12-04T07:01:39.548Z,95578.20
2018-12-04T07:04:08.928Z,95585.56
2018-12-04T07:06:38.539Z,95595.54
2018-12-04T07:09:08.859Z,95593.31
2018-12-04T07:11:38.416Z,95598.69
2018-12-04T07:14:07.937Z,95601.54
2018-12-04T07:16:37.376Z,95612.20
2018-12-04T07:19:07.425Z,95616.52
2018-12-04T07:21:36.816Z,95622.99
2018-12-04T07:24:06.193Z,95626.67
2018-12-04T07:26:35.580Z,95629.81
2018-12-04T07:29:05.056Z,95636.23
2018-12-04T07:31:34.579Z,95651.56
2018-12-04T07:34:04.123Z,95641.92
2018-12-04T07:36:36.682Z,95646.98
2018-12-04T07:39:08.414Z,95643.09
2018-12-04T07:41:37.823Z,95659.45
2018-12-04T07:44:07.489Z,95669.94
2018-12-04T07:46:37.015Z,95675.85
2018-12-04T07:49:06.416Z,95675.09
2018-12-04T07:51:35.963Z,95676.58
2018-12-04T07:54:05.458Z,95699.75
2018-12-04T07:56:34.935Z,95693.08
2018-12-04T07:59:04.356Z,95694.30
2018-12-04T08:01:33.716Z,95703.56
2018-12-04T08:04:03.308Z,95707.65
2018-12-04T08:06:34.797Z,95707.78
2018-12-04T08:09:07.540Z,95713.33
2018-12-04T08:11:37.060Z,95713.52
2018-12-04T08:14:06.403Z,95713.03
2018-12-04T08:16:35.847Z,95724.87
2018-12-04T08:19:05.561Z,95722.73
2018-12-04T08:21:34.949Z,95724.71
2018-12-04T08:24:04.464Z,95759.76
2018-12-04T08:26:34.807Z,95736.56
2018-12-04T08:29:04.211Z,95746.59
2018-12-04T08:31:34.074Z,95757.65
2018-12-04T08:34:03.638Z,95758.20
2018-12-04T08:36:33.003Z,95773.15
2018-12-04T08:39:02.549Z,95766.87
2018-12-04T08:41:31.895Z,95782.86
2018-12-04T08:44:01.173Z,95790.01
2018-12-04T08:46:30.749Z,95795.58
2018-12-04T08:49:00.111Z,95803.33
2018-12-04T08:51:29.693Z,95825.14
2018-12-04T08:53:59.048Z,95816.84
2018-12-04T08:56:29.650Z,95818.78
2018-12-04T08:58:59.030Z,95839.56
2018-12-04T09:01:28.751Z,95833.61
2018-12-04T09:03:59.275Z,95839.72
2018-12-04T09:06:33.094Z,95832.42
2018-12-04T09:09:02.559Z,95838.81
2018-12-04T09:11:33.037Z,95847.84
2018-12-04T09:14:02.450Z,95857.53
2018-12-04T09:16:31.829Z,95860.43
2018-12-04T09:19:01.416Z,95866.24
2018-12-04T09:21:31.103Z,95870.20
2018-12-04T09:24:00.779Z,95876.13
2018-12-04T09:26:30.222Z,95872.73
2018-12-04T09:28:59.821Z,95881.09
2018-12-04T09:31:29.216Z,95893.97
2018-12-04T09:33:58.981Z,95891.31
2018-12-04T09:36:28.332Z,95896.53
2018-12-04T09:38:57.653Z,95900.30
2018-12-04T09:41:26.987Z,95907.82
2018-12-04T09:43:56.406Z,95918.21
2018-12-04T09:46:25.749Z,95911.02
2018-12-04T09:48:55.081Z,95920.83
2018-12-04T09:51:24.609Z,95917.09
2018-12-04T09:53:53.985Z,95927.34
2018-12-04T09:56:23.414Z,95926.66
2018-12-04T09:58:52.813Z,95926.00
2018-12-04T10:01:22.185Z,95920.17
2018-12-04T10:03:51.565Z,95917.28
2018-12-04T10:06:20.986Z,95926.30
2018-12-04T10:08:50.408Z,95918.45
2018-12-04T10:11:19.975Z,95914.50
2018-12-04T10:13:49.573Z,95912.60
2018-12-04T10:16:18.931Z,95910.02
2018-12-04T10:18:48.479Z,95917.24
2018-12-04T10:21:17.861Z,95867.48
2018-12-04T10:23:47.194Z,95920.80
2018-12-04T10:26:16.592Z,95921.16
2018-12-04T10:28:46.080Z,95920.91
2018-12-04T10:31:15.425Z,95923.32
2018-12-04T10:33:44.859Z,95936.37
2018-12-04T10:36:14.244Z,95928.73
2018-12-04T10:38:43.658Z,95933.41
2018-12-04T10:41:12.996Z,95939.37
2018-12-04T10:43:42.394Z,95933.04
2018-12-04T10:46:11.729Z,95936.50
2018-12-04T10:48:41.112Z,95937.38
2018-12-04T10:51:10.556Z,95934.23
2018-12-04T10:53:40.020Z,95947.63
2018-12-04T10:56:09.502Z,95933.28
2018-12-04T10:58:38.915Z,95942.09
2018-12-04T11:01:27.678Z,95938.55
2018-12-04T11:03:57.172Z,95957.70
2018-12-04T11:06:26.563Z,95950.64
2018-12-04T11:08:55.924Z,95951.52
2018-12-04T11:11:25.447Z,95952.89
2018-12-04T11:13:54.823Z,95966.06
2018-12-04T11:16:24.259Z,95955.68
2018-12-04T11:18:53.733Z,95878.13
2018-12-04T11:21:23.073Z,95961.50
2018-12-04T11:23:52.389Z,95964.78
2018-12-04T11:26:21.855Z,95962.59
2018-12-04T11:28:51.241Z,95969.25
2018-12-04T11:31:20.648Z,95973.12
2018-12-04T11:33:50.110Z,95975.94
2018-12-04T11:36:20.073Z,95978.93
2018-12-04T11:38:49.467Z,95977.05
2018-12-04T11:41:18.909Z,95976.75
2018-12-04T11:43:48.283Z,95976.34
2018-12-04T11:46:17.797Z,95970.59
2018-12-04T11:48:47.190Z,95974.95
2018-12-04T11:51:16.573Z,95977.13
2018-12-04T11:53:45.955Z,95977.91
2018-12-04T11:56:15.409Z,95990.02
2018-12-04T11:58:44.807Z,96004.62
2018-12-04T12:01:18.383Z,96000.47
2018-12-04T12:03:47.974Z,96000.77
2018-12-04T12:06:17.454Z,96005.03
2018-12-04T12:08:46.969Z,96002.43
2018-12-04T12:11:16.430Z,96002.53
2018-12-04T12:13:45.778Z,96018.88
2018-12-04T12:16:15.134Z,96032.53
2018-12-04T12:18:44.617Z,96032.66
2018-12-04T12:21:14.046Z,96037.06
2018-12-04T12:23:43.420Z,96035.41
2018-12-04T12:26:12.934Z,96043.00
2018-12-04T12:28:42.284Z,96040.41
2018-12-04T12:31:11.656Z,96042.51
2018-12-04T12:33:41.022Z,96048.76
2018-12-04T12:36:10.496Z,96048.64
2018-12-04T12:38:39.867Z,96047.50
2018-12-04T12:41:09.358Z,96059.66
2018-12-04T12:43:38.818Z,96047.45
2018-12-04T12:46:08.212Z,96062.49
2018-12-04T12:48:37.589Z,96054.83
2018-12-04T12:51:06.950Z,96066.52
2018-12-04T12:53:36.312Z,96062.03
2018-12-04T12:56:05.794Z,96064.57
2018-12-04T12:58:35.149Z,96068.45
2018-12-04T13:01:04.716Z,96083.31
2018-12-04T13:03:34.265Z,96083.19
2018-12-04T13:06:03.853Z,96088.25
2018-12-04T13:08:33.407Z,96099.45
2018-12-04T13:11:03.409Z,96099.08
2018-12-04T13:13:36.826Z,96103.01
2018-12-04T13:16:04.461Z,96114.61
2018-12-04T13:18:33.844Z,96106.31
2018-12-04T13:21:03.221Z,96106.14
2018-12-04T13:23:32.702Z,96115.22
2018-12-04T13:26:02.098Z,96127.52
2018-12-04T13:28:31.542Z,96124.72
2018-12-04T13:31:01.028Z,96124.02
2018-12-04T13:33:30.448Z,96123.17
2018-12-04T13:35:59.840Z,96129.69
2018-12-04T13:38:29.207Z,96130.17
2018-12-04T13:40:58.663Z,96128.87
2018-12-04T13:43:28.133Z,96138.86
2018-12-04T13:45:57.631Z,96137.11
2018-12-04T13:48:27.069Z,96141.23
2018-12-04T13:50:56.524Z,96144.67
2018-12-04T13:53:25.920Z,96147.87
2018-12-04T13:55:55.339Z,96147.23
2018-12-04T13:58:24.830Z,96153.61
2018-12-04T14:00:54.169Z,96158.42
2018-12-04T14:03:23.660Z,96163.30
2018-12-04T14:05:53.056Z,96171.48
2018-12-04T14:08:22.486Z,96177.69
2018-12-04T14:10:51.948Z,96165.75
2018-12-04T14:13:21.310Z,96187.80
2018-12-04T14:15:50.715Z,96189.01
2018-12-04T14:18:20.120Z,96110.31
2018-12-04T14:20:49.546Z,96206.24
2018-12-04T14:23:19.510Z,96218.16
2018-12-04T14:25:48.943Z,96219.36
2018-12-04T14:28:18.333Z,96216.92
2018-12-04T14:30:47.864Z,96225.98
2018-12-04T14:33:17.234Z,96230.83
2018-12-04T14:35:46.608Z,96239.53
2018-12-04T14:38:15.998Z,96245.89
2018-12-04T14:40:45.404Z,96258.86
2018-12-04T14:43:14.877Z,96260.27
2018-12-04T14:45:44.535Z,96256.50
2018-12-04T14:48:14.066Z,96253.31
2018-12-04T14:50:43.497Z,96250.49
2018-12-04T14:53:12.949Z,96261.09
2018-12-04T14:55:42.328Z,96267.91
2018-12-04T14:58:11.714Z,96264.75
2018-12-04T15:00:41.167Z,96275.09
2018-12-04T15:03:10.549Z,96272.98
2018-12-04T15:05:39.940Z,96278.41
2018-12-04T15:08:09.610Z,96277.11
2018-12-04T15:10:39.023Z,96267.21
2018-12-04T15:13:08.705Z,96287.58
2018-12-04T15:15:38.160Z,96289.09
2018-12-04T15:18:07.596Z,96286.63
2018-12-04T15:20:37.000Z,96285.69
2018-12-04T15:23:06.372Z,96288.86
2018-12-04T15:25:35.877Z,96286.14
2018-12-04T15:28:05.391Z,96292.61
2018-12-04T15:30:34.997Z,96296.00
2018-12-04T15:33:04.577Z,96291.41
2018-12-04T15:35:34.094Z,96294.59
2018-12-04T15:38:03.595Z,96305.87
2018-12-04T15:40:34.069Z,96304.19
2018-12-04T15:43:03.707Z,96318.20
2018-12-04T15:45:33.350Z,96135.66
2018-12-04T15:48:02.780Z,96316.30
2018-12-04T15:50:32.342Z,96305.02
2018-12-04T15:53:01.892Z,96314.91
2018-12-04T15:55:31.344Z,96318.20
2018-12-04T15:58:00.681Z,96316.38
2018-12-04T16:00:30.112Z,96321.56
2018-12-04T16:02:59.702Z,96323.16
2018-12-04T16:05:29.188Z,96333.95
2018-12-04T16:07:58.586Z,96336.16
2018-12-04T16:10:27.949Z,96339.00
2018-12-04T16:12:57.381Z,96343.22
2018-12-04T16:15:27.089Z,96342.06
2018-12-04T16:17:56.472Z,96350.09
2018-12-04T16:20:25.863Z,96348.40
2018-12-04T16:22:55.604Z,96356.64
2018-12-04T16:25:24.956Z,96363.34
2018-12-04T16:27:54.394Z,96368.52
2018-12-04T16:30:24.400Z,96376.85
2018-12-04T16:32:53.888Z,96374.98
2018-12-04T16:35:24.210Z,96388.52
2018-12-04T16:37:53.684Z,96394.75
2018-12-04T16:40:23.070Z,96399.66
2018-12-04T16:42:52.648Z,96401.77
2018-12-04T16:45:22.140Z,96402.31
2018-12-04T16:47:51.604Z,96410.92
2018-12-04T16:50:21.282Z,96406.19
2018-12-04T16:52:50.720Z,96390.13
2018-12-04T16:55:20.124Z,96415.53
2018-12-04T16:57:49.483Z,96415.62
2018-12-04T17:00:19.064Z,96412.22
2018-12-04T17:02:48.526Z,96411.77
2018-12-04T17:05:18.138Z,96415.52
2018-12-04T17:07:47.631Z,96418.98
2018-12-04T17:10:22.453Z,96412.42
2018-12-04T17:12:48.684Z,96425.48
2018-12-04T17:15:18.171Z,96431.67
2018-12-04T17:17:47.549Z,96435.21
2018-12-04T17:20:17.060Z,96434.73
2018-12-04T17:22:46.522Z,96428.38
2018-12-04T17:25:15.986Z,96431.29
2018-12-04T17:27:45.328Z,96435.52
2018-12-04T17:30:14.888Z,96437.14
2018-12-04T17:32:44.684Z,96455.81
2018-12-04T17:35:14.362Z,96461.07
2018-12-04T17:37:43.797Z,96464.14
2018-12-04T17:40:14.643Z,96475.96
2018-12-04T17:42:44.123Z,96480.73
2018-12-04T17:45:13.640Z,96476.95
2018-12-04T17:47:43.033Z,96480.06
2018-12-04T17:50:12.459Z,96492.69
2018-12-04T17:52:41.885Z,96499.83
2018-12-04T17:55:11.293Z,96510.33
2018-12-04T17:57:40.634Z,96513.36
2018-12-04T18:00:12.669Z,96509.70
2018-12-04T18:02:44.273Z,96511.81
2018-12-04T18:05:13.753Z,96518.59
2018-12-04T18:07:43.312Z,96515.86
2018-12-04T18:10:12.804Z,96522.38
2018-12-04T18:12:42.421Z,96527.98
2018-12-04T18:15:11.951Z,96533.31
2018-12-04T18:17:41.426Z,96534.42
2018-12-04T18:20:10.810Z,96537.25
2018-12-04T18:22:40.236Z,96546.45
2018-12-04T18:25:10.667Z,96545.34
2018-12-04T18:27:40.038Z,96541.06
2018-12-04T18:30:09.792Z,96539.45
2018-12-04T18:32:39.297Z,96546.45
2018-12-04T18:35:08.795Z,96555.59
2018-12-04T18:37:38.274Z,96561.47
2018-12-04T18:40:08.306Z,96560.13
2018-12-04T18:42:37.649Z,96569.48
2018-12-04T18:45:08.664Z,96569.66
2018-12-04T18:47:38.112Z,96575.84
2018-12-04T18:50:10.024Z,96574.23
2018-12-04T18:52:40.433Z,96577.36
2018-12-04T18:55:13.383Z,96573.98
2018-12-04T18:57:42.971Z,96581.30
2018-12-04T19:00:12.523Z,96574.10
2018-12-04T19:02:41.921Z,96583.78
2018-12-04T19:05:11.527Z,96587.10
2018-12-04T19:07:40.879Z,96582.10
2018-12-04T19:10:10.435Z,96590.39
2018-12-04T19:12:39.849Z,96593.14
2018-12-04T19:15:09.538Z,96588.16
2018-12-04T19:17:38.899Z,96588.13
2018-12-04T19:20:09.165Z,96592.09
2018-12-04T19:22:38.713Z,96598.28
2018-12-04T19:25:08.120Z,96604.27
2018-12-04T19:27:37.614Z,96562.05
2018-12-04T19:30:11.058Z,96606.00
2018-12-04T19:32:40.616Z,96606.03
2018-12-04T19:35:12.321Z,96609.59
2018-12-04T19:37:41.808Z,96608.34
2018-12-04T19:40:12.128Z,96611.49
2018-12-04T19:42:44.520Z,96604.01
2018-12-04T19:45:14.877Z,96603.45
2018-12-04T19:47:44.287Z,96600.44
2018-12-04T19:50:14.113Z,96610.16
2018-12-04T19:52:43.534Z,96615.19
2018-12-04T19:55:13.021Z,96617.30
2018-12-04T19:57:42.583Z,96623.16
2018-12-04T20:00:12.328Z,96617.64
2018-12-04T20:02:41.968Z,96622.53
2018-12-04T20:05:11.597Z,96627.62
2018-12-04T20:07:41.093Z,96629.05
2018-12-04T20:10:10.608Z,96636.97
2018-12-04T20:12:40.280Z,96627.28
2018-12-04T20:15:10.015Z,96637.14
2018-12-04T20:17:39.604Z,96641.92
2018-12-04T20:20:09.290Z,96647.48
2018-12-04T20:22:38.748Z,96650.56
2018-12-04T20:25:08.985Z,96651.52
2018-12-04T20:27:38.360Z,96650.88
2018-12-04T20:30:08.594Z,96644.62
2018-12-04T20:32:38.375Z,96638.83
2018-12-04T20:35:08.104Z,96639.69
2018-12-04T20:37:37.490Z,96637.02
2018-12-04T20:40:07.090Z,96637.84
2018-12-04T20:42:36.578Z,96652.72
2018-12-04T20:45:06.748Z,96662.96
2018-12-04T20:47:36.279Z,96656.59
2018-12-04T20:50:07.207Z,96664.84
2018-12-04T20:52:36.669Z,96675.81
2018-12-04T20:55:08.969Z,96671.20
2018-12-04T20:57:37.854Z,96678.36
2018-12-04T21:00:09.829Z,96680.03
2018-12-04T21:02:39.769Z,96673.20
2018-12-04T21:05:09.331Z,96678.16
2018-12-04T21:07:38.835Z,96675.58
2018-12-04T21:10:08.613Z,96667.00
2018-12-04T21:12:38.127Z,96661.50
2018-12-04T21:15:07.837Z,96659.91
2018-12-04T21:17:37.220Z,96667.92
2018-12-04T21:20:06.993Z,96676.22
2018-12-04T21:22:36.414Z,96685.64
2018-12-04T21:25:06.553Z,96682.97
2018-12-04T21:27:41.232Z,96672.17
2018-12-04T21:30:15.881Z,96677.72
2018-12-04T21:32:50.679Z,96674.34
2018-12-04T21:35:25.499Z,96679.63
2018-12-04T21:39:03.112Z,96684.86
2018-12-04T21:41:37.807Z,96692.78
2018-12-04T21:44:12.511Z,96697.30
2018-12-04T21:47:49.796Z,96701.63
2018-12-04T21:50:19.370Z,96707.64
2018-12-04T21:52:48.768Z,96713.97
2018-12-04T21:55:18.278Z,96705.12
2018-12-04T21:57:47.654Z,96715.81
2018-12-04T22:00:18.483Z,96714.41
2018-12-04T22:02:48.112Z,96719.02
2018-12-04T22:05:17.626Z,96721.80
2018-12-04T22:07:47.229Z,96722.62
2018-12-04T22:10:16.872Z,96725.28
2018-12-04T22:12:46.296Z,96724.73
2018-12-04T22:15:15.864Z,96717.48
2018-12-04T22:17:45.333Z,96727.44
2018-12-04T22:20:14.795Z,96738.01
2018-12-04T22:22:44.242Z,96738.94
2018-12-04T22:25:13.690Z,96733.98
2018-12-04T22:27:43.095Z,96732.95
2018-12-04T22:30:12.534Z,96727.16
2018-12-04T22:32:41.928Z,96724.59
2018-12-04T22:35:11.378Z,96736.18
2018-12-04T22:37:40.748Z,96739.60
2018-12-04T22:40:10.309Z,96734.55
2018-12-04T22:42:39.657Z,96741.63
2018-12-04T22:45:14.844Z,96747.53
2018-12-04T22:47:44.237Z,96749.00
2018-12-04T22:50:13.886Z,96759.33
2018-12-04T22:52:43.371Z,96750.45
2018-12-04T22:55:12.774Z,96749.25
2018-12-04T22:57:42.193Z,96757.84
2018-12-04T23:00:22.408Z,96762.34
2018-12-04T23:02:51.753Z,96765.94
2018-12-04T23:05:21.123Z,96767.15
2018-12-04T23:07:50.667Z,96767.31
2018-12-04T23:10:19.997Z,96772.48
2018-12-04T23:12:49.423Z,96767.53
2018-12-04T23:15:18.836Z,96767.88
2018-12-04T23:17:48.184Z,96764.95
2018-12-04T23:20:17.631Z,96756.09
2018-12-04T23:22:47.323Z,96744.73
2018-12-04T23:25:17.003Z,96738.73
2018-12-04T23:27:46.634Z,96737.73
2018-12-04T23:30:17.197Z,96722.56
2018-12-04T23:32:46.565Z,96728.45
2018-12-04T23:35:16.053Z,96720.91
2018-12-04T23:37:45.433Z,96729.80
2018-12-04T23:40:14.881Z,96730.19
2018-12-04T23:42:44.661Z,96734.41
2018-12-04T23:45:14.131Z,96735.45
2018-12-04T23:47:43.431Z,96748.05
2018-12-04T23:50:13.113Z,96747.59
2018-12-04T23:52:42.499Z,96748.22
2018-12-04T23:55:11.837Z,96744.95
2018-12-04T23:57:41.156Z,96749.97
